sensor_id;sensor_type;location;lat;lon;timestamp;P1;durP1;ratioP1;P2;durP2;ratioP2
54143;SDS011;40050;47.324;18.792;2023-04-25T00:01:22;5.57;;;2.67;;
54143;SDS011;40050;47.324;18.792;2023-04-25T00:03:23;4.16;;;2.67;;
54143;SDS011;40050;47.324;18.792;2023-04-25T00:05:24;4.43;;;2.67;;
54143;SDS011;40050;47.324;18.792;2023-04-25T00:07:25;4.72;;;2.67;;
54143;SDS011;40050;47.324;18.792;2023-04-25T00:09:26;6.22;;;2.67;;
54143;SDS011;40050;47.324;18.792;2023-04-25T00:11:27;3.96;;;2.87;;
54143;SDS011;40050;47.324;18.792;2023-04-25T00:13:28;5.09;;;2.97;;
54143;SDS011;40050;47.324;18.792;2023-04-25T00:15:29;5.83;;;3.16;;
54143;SDS011;40050;47.324;18.792;2023-04-25T00:17:30;4.89;;;3.36;;
54143;SDS011;40050;47.324;18.792;2023-04-25T00:19:32;4.61;;;3.46;;
54143;SDS011;40050;47.324;18.792;2023-04-25T00:21:33;4.79;;;3.26;;
54143;SDS011;40050;47.324;18.792;2023-04-25T00:23:34;4.78;;;3.75;;
54143;SDS011;40050;47.324;18.792;2023-04-25T00:25:36;5.44;;;3.75;;
54143;SDS011;40050;47.324;18.792;2023-04-25T00:27:37;9.56;;;4.45;;
54143;SDS011;40050;47.324;18.792;2023-04-25T00:29:38;7.03;;;4.64;;
54143;SDS011;40050;47.324;18.792;2023-04-25T00:31:39;5.72;;;4.54;;
54143;SDS011;40050;47.324;18.792;2023-04-25T00:33:40;5.80;;;4.64;;
54143;SDS011;40050;47.324;18.792;2023-04-25T00:35:41;6.64;;;4.94;;
54143;SDS011;40050;47.324;18.792;2023-04-25T00:37:42;7.57;;;4.94;;
54143;SDS011;40050;47.324;18.792;2023-04-25T00:39:43;5.42;;;4.74;;
54143;SDS011;40050;47.324;18.792;2023-04-25T00:41:44;8.42;;;5.13;;
54143;SDS011;40050;47.324;18.792;2023-04-25T00:43:45;6.18;;;4.64;;
54143;SDS011;40050;47.324;18.792;2023-04-25T00:45:46;7.02;;;4.84;;
54143;SDS011;40050;47.324;18.792;2023-04-25T00:47:47;10.11;;;4.74;;
54143;SDS011;40050;47.324;18.792;2023-04-25T00:49:48;9.83;;;4.54;;
54143;SDS011;40050;47.324;18.792;2023-04-25T00:51:50;6.28;;;4.54;;
54143;SDS011;40050;47.324;18.792;2023-04-25T00:53:55;6.27;;;4.35;;
54143;SDS011;40050;47.324;18.792;2023-04-25T00:55:56;5.35;;;4.25;;
54143;SDS011;40050;47.324;18.792;2023-04-25T00:57:57;6.38;;;4.05;;
54143;SDS011;40050;47.324;18.792;2023-04-25T00:59:58;5.72;;;3.75;;
54143;SDS011;40050;47.324;18.792;2023-04-25T01:01:59;4.88;;;3.76;;
54143;SDS011;40050;47.324;18.792;2023-04-25T01:04:03;5.82;;;3.86;;
54143;SDS011;40050;47.324;18.792;2023-04-25T01:06:04;5.36;;;3.76;;
54143;SDS011;40050;47.324;18.792;2023-04-25T01:08:05;3.86;;;3.36;;
54143;SDS011;40050;47.324;18.792;2023-04-25T01:10:07;7.53;;;3.56;;
54143;SDS011;40050;47.324;18.792;2023-04-25T01:12:07;4.42;;;3.16;;
54143;SDS011;40050;47.324;18.792;2023-04-25T01:14:08;6.78;;;2.97;;
54143;SDS011;40050;47.324;18.792;2023-04-25T01:16:09;4.52;;;3.17;;
54143;SDS011;40050;47.324;18.792;2023-04-25T01:18:11;6.22;;;3.07;;
54143;SDS011;40050;47.324;18.792;2023-04-25T01:20:12;6.04;;;3.56;;
54143;SDS011;40050;47.324;18.792;2023-04-25T01:22:13;4.16;;;2.87;;
54143;SDS011;40050;47.324;18.792;2023-04-25T01:24:14;5.39;;;2.77;;
54143;SDS011;40050;47.324;18.792;2023-04-25T01:26:15;5.48;;;3.07;;
54143;SDS011;40050;47.324;18.792;2023-04-25T01:28:17;6.24;;;2.87;;
54143;SDS011;40050;47.324;18.792;2023-04-25T01:30:18;5.67;;;3.07;;
54143;SDS011;40050;47.324;18.792;2023-04-25T01:32:19;5.30;;;3.27;;
54143;SDS011;40050;47.324;18.792;2023-04-25T01:34:20;3.03;;;2.77;;
54143;SDS011;40050;47.324;18.792;2023-04-25T01:36:21;7.39;;;3.37;;
54143;SDS011;40050;47.324;18.792;2023-04-25T01:38:22;3.89;;;2.68;;
54143;SDS011;40050;47.324;18.792;2023-04-25T01:40:23;3.52;;;2.68;;
54143;SDS011;40050;47.324;18.792;2023-04-25T01:42:24;4.75;;;2.78;;
54143;SDS011;40050;47.324;18.792;2023-04-25T01:44:25;4.85;;;2.58;;
54143;SDS011;40050;47.324;18.792;2023-04-25T01:46:26;3.90;;;2.48;;
54143;SDS011;40050;47.324;18.792;2023-04-25T01:48:27;3.71;;;2.78;;
54143;SDS011;40050;47.324;18.792;2023-04-25T01:50:28;3.82;;;2.58;;
54143;SDS011;40050;47.324;18.792;2023-04-25T01:52:30;3.53;;;2.38;;
54143;SDS011;40050;47.324;18.792;2023-04-25T01:54:30;5.06;;;2.38;;
54143;SDS011;40050;47.324;18.792;2023-04-25T01:56:31;4.40;;;2.09;;
54143;SDS011;40050;47.324;18.792;2023-04-25T01:58:33;2.68;;;1.99;;
54143;SDS011;40050;47.324;18.792;2023-04-25T02:00:36;2.58;;;1.89;;
54143;SDS011;40050;47.324;18.792;2023-04-25T02:02:37;2.39;;;1.99;;
54143;SDS011;40050;47.324;18.792;2023-04-25T02:04:38;3.16;;;2.09;;
54143;SDS011;40050;47.324;18.792;2023-04-25T02:06:39;3.35;;;1.99;;
54143;SDS011;40050;47.324;18.792;2023-04-25T02:08:40;4.79;;;2.38;;
54143;SDS011;40050;47.324;18.792;2023-04-25T02:10:41;4.22;;;2.09;;
54143;SDS011;40050;47.324;18.792;2023-04-25T02:12:42;4.22;;;1.89;;
54143;SDS011;40050;47.324;18.792;2023-04-25T02:14:43;4.12;;;2.09;;
54143;SDS011;40050;47.324;18.792;2023-04-25T02:16:43;3.45;;;1.99;;
54143;SDS011;40050;47.324;18.792;2023-04-25T02:18:44;2.40;;;2.09;;
54143;SDS011;40050;47.324;18.792;2023-04-25T02:20:45;2.50;;;1.99;;
54143;SDS011;40050;47.324;18.792;2023-04-25T02:22:46;2.50;;;1.99;;
54143;SDS011;40050;47.324;18.792;2023-04-25T02:24:47;2.98;;;1.79;;
54143;SDS011;40050;47.324;18.792;2023-04-25T02:26:48;3.27;;;1.99;;
54143;SDS011;40050;47.324;18.792;2023-04-25T02:28:49;3.18;;;1.89;;
54143;SDS011;40050;47.324;18.792;2023-04-25T02:30:50;4.33;;;1.89;;
54143;SDS011;40050;47.324;18.792;2023-04-25T02:32:51;3.47;;;1.99;;
54143;SDS011;40050;47.324;18.792;2023-04-25T02:34:52;2.99;;;1.99;;
54143;SDS011;40050;47.324;18.792;2023-04-25T02:36:53;4.05;;;1.99;;
54143;SDS011;40050;47.324;18.792;2023-04-25T02:38:54;2.99;;;2.09;;
54143;SDS011;40050;47.324;18.792;2023-04-25T02:40:55;2.80;;;1.69;;
54143;SDS011;40050;47.324;18.792;2023-04-25T02:42:57;3.28;;;1.89;;
54143;SDS011;40050;47.324;18.792;2023-04-25T02:44:58;3.57;;;2.09;;
54143;SDS011;40050;47.324;18.792;2023-04-25T02:46:59;2.99;;;1.99;;
54143;SDS011;40050;47.324;18.792;2023-04-25T02:49:00;3.18;;;1.79;;
54143;SDS011;40050;47.324;18.792;2023-04-25T02:51:01;3.09;;;1.89;;
54143;SDS011;40050;47.324;18.792;2023-04-25T02:53:02;2.80;;;1.89;;
54143;SDS011;40050;47.324;18.792;2023-04-25T02:55:03;2.80;;;1.89;;
54143;SDS011;40050;47.324;18.792;2023-04-25T02:57:04;4.63;;;1.99;;
54143;SDS011;40050;47.324;18.792;2023-04-25T02:59:05;3.57;;;2.09;;
54143;SDS011;40050;47.324;18.792;2023-04-25T03:01:06;3.38;;;1.89;;
54143;SDS011;40050;47.324;18.792;2023-04-25T03:03:06;3.28;;;1.79;;
54143;SDS011;40050;47.324;18.792;2023-04-25T03:05:07;3.19;;;1.79;;
54143;SDS011;40050;47.324;18.792;2023-04-25T03:07:09;3.76;;;1.89;;
54143;SDS011;40050;47.324;18.792;2023-04-25T03:09:09;2.70;;;1.99;;
54143;SDS011;40050;47.324;18.792;2023-04-25T03:11:10;3.67;;;1.99;;
54143;SDS011;40050;47.324;18.792;2023-04-25T03:13:11;7.72;;;2.39;;
54143;SDS011;40050;47.324;18.792;2023-04-25T03:15:12;3.18;;;1.89;;
54143;SDS011;40050;47.324;18.792;2023-04-25T03:17:13;2.80;;;1.79;;
54143;SDS011;40050;47.324;18.792;2023-04-25T03:19:14;3.57;;;1.89;;
54143;SDS011;40050;47.324;18.792;2023-04-25T03:21:15;2.90;;;1.99;;
54143;SDS011;40050;47.324;18.792;2023-04-25T03:23:16;2.80;;;1.99;;
54143;SDS011;40050;47.324;18.792;2023-04-25T03:25:17;2.80;;;1.89;;
54143;SDS011;40050;47.324;18.792;2023-04-25T03:27:18;4.25;;;1.79;;
54143;SDS011;40050;47.324;18.792;2023-04-25T03:29:19;4.06;;;2.09;;
54143;SDS011;40050;47.324;18.792;2023-04-25T03:31:20;3.09;;;1.79;;
54143;SDS011;40050;47.324;18.792;2023-04-25T03:33:21;2.80;;;1.89;;
54143;SDS011;40050;47.324;18.792;2023-04-25T03:35:21;3.57;;;1.99;;
54143;SDS011;40050;47.324;18.792;2023-04-25T03:37:22;2.99;;;1.69;;
54143;SDS011;40050;47.324;18.792;2023-04-25T03:39:23;2.80;;;2.09;;
54143;SDS011;40050;47.324;18.792;2023-04-25T03:41:24;2.80;;;1.79;;
54143;SDS011;40050;47.324;18.792;2023-04-25T03:43:25;2.99;;;1.99;;
54143;SDS011;40050;47.324;18.792;2023-04-25T03:45:26;2.61;;;1.89;;
54143;SDS011;40050;47.324;18.792;2023-04-25T03:47:27;2.99;;;2.09;;
54143;SDS011;40050;47.324;18.792;2023-04-25T03:49:32;3.57;;;2.29;;
54143;SDS011;40050;47.324;18.792;2023-04-25T03:51:32;2.89;;;1.79;;
54143;SDS011;40050;47.324;18.792;2023-04-25T03:53:33;2.80;;;1.99;;
54143;SDS011;40050;47.324;18.792;2023-04-25T03:55:34;3.66;;;1.99;;
54143;SDS011;40050;47.324;18.792;2023-04-25T03:57:35;2.41;;;1.99;;
54143;SDS011;40050;47.324;18.792;2023-04-25T03:59:36;3.08;;;1.99;;
54143;SDS011;40050;47.324;18.792;2023-04-25T04:01:38;2.40;;;2.09;;
54143;SDS011;40050;47.324;18.792;2023-04-25T04:03:38;4.32;;;2.19;;
54143;SDS011;40050;47.324;18.792;2023-04-25T04:05:39;5.86;;;2.39;;
54143;SDS011;40050;47.324;18.792;2023-04-25T04:07:40;2.69;;;2.19;;
54143;SDS011;40050;47.324;18.792;2023-04-25T04:09:43;3.55;;;2.09;;
54143;SDS011;40050;47.324;18.792;2023-04-25T04:11:42;2.87;;;1.99;;
54143;SDS011;40050;47.324;18.792;2023-04-25T04:13:43;3.82;;;2.18;;
54143;SDS011;40050;47.324;18.792;2023-04-25T04:15:44;4.39;;;2.28;;
54143;SDS011;40050;47.324;18.792;2023-04-25T04:17:45;3.43;;;2.18;;
54143;SDS011;40050;47.324;18.792;2023-04-25T04:19:46;3.04;;;2.18;;
54143;SDS011;40050;47.324;18.792;2023-04-25T04:21:47;3.13;;;2.38;;
54143;SDS011;40050;47.324;18.792;2023-04-25T04:23:48;4.27;;;2.28;;
54143;SDS011;40050;47.324;18.792;2023-04-25T04:25:49;4.92;;;2.28;;
54143;SDS011;40050;47.324;18.792;2023-04-25T04:27:51;2.93;;;2.28;;
54143;SDS011;40050;47.324;18.792;2023-04-25T04:30:00;4.34;;;2.87;;
54143;SDS011;40050;47.324;18.792;2023-04-25T04:31:55;3.59;;;2.38;;
54143;SDS011;40050;47.324;18.792;2023-04-25T04:33:59;4.05;;;2.67;;
54143;SDS011;40050;47.324;18.792;2023-04-25T04:35:57;3.85;;;2.67;;
54143;SDS011;40050;47.324;18.792;2023-04-25T04:37:58;2.90;;;2.27;;
54143;SDS011;40050;47.324;18.792;2023-04-25T04:39:59;3.18;;;2.47;;
54143;SDS011;40050;47.324;18.792;2023-04-25T04:42:00;4.67;;;2.67;;
54143;SDS011;40050;47.324;18.792;2023-04-25T04:44:02;4.39;;;2.76;;
54143;SDS011;40050;47.324;18.792;2023-04-25T04:46:03;3.54;;;2.96;;
54143;SDS011;40050;47.324;18.792;2023-04-25T04:48:05;3.44;;;2.66;;
54143;SDS011;40050;47.324;18.792;2023-04-25T04:50:06;4.37;;;3.25;;
54143;SDS011;40050;47.324;18.792;2023-04-25T04:52:05;3.44;;;2.76;;
54143;SDS011;40050;47.324;18.792;2023-04-25T04:54:06;5.10;;;2.86;;
54143;SDS011;40050;47.324;18.792;2023-04-25T04:56:07;4.90;;;2.85;;
54143;SDS011;40050;47.324;18.792;2023-04-25T04:58:08;4.43;;;3.05;;
54143;SDS011;40050;47.324;18.792;2023-04-25T05:00:10;4.62;;;3.25;;
54143;SDS011;40050;47.324;18.792;2023-04-25T05:02:11;4.43;;;3.15;;
54143;SDS011;40050;47.324;18.792;2023-04-25T05:04:11;4.32;;;3.04;;
54143;SDS011;40050;47.324;18.792;2023-04-25T05:06:12;4.51;;;3.14;;
54143;SDS011;40050;47.324;18.792;2023-04-25T05:08:13;4.59;;;3.34;;
54143;SDS011;40050;47.324;18.792;2023-04-25T05:10:14;4.68;;;3.24;;
54143;SDS011;40050;47.324;18.792;2023-04-25T05:12:15;4.78;;;3.44;;
54143;SDS011;40050;47.324;18.792;2023-04-25T05:14:26;6.05;;;3.04;;
54143;SDS011;40050;47.324;18.792;2023-04-25T05:16:26;4.76;;;3.34;;
54143;SDS011;40050;47.324;18.792;2023-04-25T05:18:30;6.97;;;3.43;;
54143;SDS011;40050;47.324;18.792;2023-04-25T05:20:31;5.67;;;3.24;;
54143;SDS011;40050;47.324;18.792;2023-04-25T05:22:33;6.40;;;3.53;;
54143;SDS011;40050;47.324;18.792;2023-04-25T05:24:38;4.38;;;3.23;;
54143;SDS011;40050;47.324;18.792;2023-04-25T05:26:42;6.20;;;3.62;;
54143;SDS011;40050;47.324;18.792;2023-04-25T05:28:40;4.74;;;3.33;;
54143;SDS011;40050;47.324;18.792;2023-04-25T05:30:45;4.01;;;3.13;;
54143;SDS011;40050;47.324;18.792;2023-04-25T05:32:49;5.02;;;3.14;;
54143;SDS011;40050;47.324;18.792;2023-04-25T05:34:50;5.11;;;3.23;;
54143;SDS011;40050;47.324;18.792;2023-04-25T05:36:54;5.47;;;3.43;;
54143;SDS011;40050;47.324;18.792;2023-04-25T05:38:55;5.28;;;3.23;;
54143;SDS011;40050;47.324;18.792;2023-04-25T05:40:56;5.01;;;3.23;;
54143;SDS011;40050;47.324;18.792;2023-04-25T05:42:57;5.75;;;3.63;;
54143;SDS011;40050;47.324;18.792;2023-04-25T05:44:58;4.93;;;3.63;;
54143;SDS011;40050;47.324;18.792;2023-04-25T05:46:59;4.75;;;3.63;;
54143;SDS011;40050;47.324;18.792;2023-04-25T05:48:59;5.04;;;3.53;;
54143;SDS011;40050;47.324;18.792;2023-04-25T05:51:00;4.32;;;3.24;;
54143;SDS011;40050;47.324;18.792;2023-04-25T05:53:01;5.32;;;3.63;;
54143;SDS011;40050;47.324;18.792;2023-04-25T05:55:02;6.52;;;3.63;;
54143;SDS011;40050;47.324;18.792;2023-04-25T05:57:03;4.33;;;3.24;;
54143;SDS011;40050;47.324;18.792;2023-04-25T05:59:04;7.10;;;3.54;;
54143;SDS011;40050;47.324;18.792;2023-04-25T06:01:05;5.35;;;3.64;;
54143;SDS011;40050;47.324;18.792;2023-04-25T06:03:06;6.72;;;3.73;;
54143;SDS011;40050;47.324;18.792;2023-04-25T06:05:07;4.43;;;3.74;;
54143;SDS011;40050;47.324;18.792;2023-04-25T06:07:08;7.48;;;3.84;;
54143;SDS011;40050;47.324;18.792;2023-04-25T06:09:09;4.54;;;3.25;;
54143;SDS011;40050;47.324;18.792;2023-04-25T06:11:09;5.84;;;3.54;;
54143;SDS011;40050;47.324;18.792;2023-04-25T06:13:10;5.77;;;3.45;;
54143;SDS011;40050;47.324;18.792;2023-04-25T06:15:11;8.77;;;3.75;;
54143;SDS011;40050;47.324;18.792;2023-04-25T06:17:12;4.77;;;3.46;;
54143;SDS011;40050;47.324;18.792;2023-04-25T06:19:13;6.52;;;3.55;;
54143;SDS011;40050;47.324;18.792;2023-04-25T06:21:14;6.54;;;3.36;;
54143;SDS011;40050;47.324;18.792;2023-04-25T06:23:15;7.52;;;3.46;;
54143;SDS011;40050;47.324;18.792;2023-04-25T06:25:16;4.72;;;3.17;;
54143;SDS011;40050;47.324;18.792;2023-04-25T06:27:17;4.06;;;3.07;;
54143;SDS011;40050;47.324;18.792;2023-04-25T06:29:18;5.38;;;3.56;;
54143;SDS011;40050;47.324;18.792;2023-04-25T06:31:19;4.53;;;3.56;;
54143;SDS011;40050;47.324;18.792;2023-04-25T06:33:20;5.37;;;3.86;;
54143;SDS011;40050;47.324;18.792;2023-04-25T06:35:21;7.27;;;3.76;;
54143;SDS011;40050;47.324;18.792;2023-04-25T06:37:21;6.34;;;3.37;;
54143;SDS011;40050;47.324;18.792;2023-04-25T06:39:23;4.18;;;3.17;;
54143;SDS011;40050;47.324;18.792;2023-04-25T06:41:24;6.55;;;3.47;;
54143;SDS011;40050;47.324;18.792;2023-04-25T06:43:24;4.84;;;3.47;;
54143;SDS011;40050;47.324;18.792;2023-04-25T06:45:25;5.60;;;3.67;;
54143;SDS011;40050;47.324;18.792;2023-04-25T06:47:26;6.07;;;3.97;;
54143;SDS011;40050;47.324;18.792;2023-04-25T06:49:27;9.65;;;4.16;;
54143;SDS011;40050;47.324;18.792;2023-04-25T06:51:28;5.03;;;3.67;;
54143;SDS011;40050;47.324;18.792;2023-04-25T06:53:29;4.28;;;3.17;;
54143;SDS011;40050;47.324;18.792;2023-04-25T06:55:30;5.34;;;3.27;;
54143;SDS011;40050;47.324;18.792;2023-04-25T06:57:31;4.67;;;3.67;;
54143;SDS011;40050;47.324;18.792;2023-04-25T06:59:32;5.36;;;3.67;;
54143;SDS011;40050;47.324;18.792;2023-04-25T07:01:33;5.36;;;3.67;;
54143;SDS011;40050;47.324;18.792;2023-04-25T07:03:34;6.72;;;3.78;;
54143;SDS011;40050;47.324;18.792;2023-04-25T07:05:35;5.44;;;3.47;;
54143;SDS011;40050;47.324;18.792;2023-04-25T07:07:36;6.12;;;3.38;;
54143;SDS011;40050;47.324;18.792;2023-04-25T07:09:37;4.69;;;3.18;;
54143;SDS011;40050;47.324;18.792;2023-04-25T07:11:41;3.84;;;3.28;;
54143;SDS011;40050;47.324;18.792;2023-04-25T07:13:42;4.71;;;3.28;;
54143;SDS011;40050;47.324;18.792;2023-04-25T07:15:43;4.03;;;3.28;;
54143;SDS011;40050;47.324;18.792;2023-04-25T07:17:44;4.71;;;3.48;;
54143;SDS011;40050;47.324;18.792;2023-04-25T07:19:45;4.70;;;3.38;;
54143;SDS011;40050;47.324;18.792;2023-04-25T07:22:00;8.83;;;3.88;;
54143;SDS011;40050;47.324;18.792;2023-04-25T07:24:16;5.95;;;3.58;;
54143;SDS011;40050;47.324;18.792;2023-04-25T07:26:09;5.38;;;3.78;;
54143;SDS011;40050;47.324;18.792;2023-04-25T07:28:09;5.39;;;3.98;;
54143;SDS011;40050;47.324;18.792;2023-04-25T07:30:11;5.20;;;3.58;;
54143;SDS011;40050;47.324;18.792;2023-04-25T07:32:11;4.82;;;3.78;;
54143;SDS011;40050;47.324;18.792;2023-04-25T07:34:12;5.19;;;3.78;;
54143;SDS011;40050;47.324;18.792;2023-04-25T07:36:13;5.58;;;3.88;;
54143;SDS011;40050;47.324;18.792;2023-04-25T07:38:16;6.64;;;3.98;;
54143;SDS011;40050;47.324;18.792;2023-04-25T07:40:20;5.57;;;3.88;;
54143;SDS011;40050;47.324;18.792;2023-04-25T07:42:26;6.53;;;3.98;;
54143;SDS011;40050;47.324;18.792;2023-04-25T07:44:22;6.15;;;3.88;;
54143;SDS011;40050;47.324;18.792;2023-04-25T07:46:23;5.67;;;3.68;;
54143;SDS011;40050;47.324;18.792;2023-04-25T07:48:23;5.20;;;3.68;;
54143;SDS011;40050;47.324;18.792;2023-04-25T07:50:26;4.53;;;3.68;;
54143;SDS011;40050;47.324;18.792;2023-04-25T07:52:38;4.25;;;3.48;;
54143;SDS011;40050;47.324;18.792;2023-04-25T07:54:26;3.58;;;3.09;;
54143;SDS011;40050;47.324;18.792;2023-04-25T07:56:29;6.67;;;3.68;;
54143;SDS011;40050;47.324;18.792;2023-04-25T07:58:28;5.89;;;3.78;;
54143;SDS011;40050;47.324;18.792;2023-04-25T08:00:42;4.15;;;3.48;;
54143;SDS011;40050;47.324;18.792;2023-04-25T08:05:09;4.83;;;3.68;;
54143;SDS011;40050;47.324;18.792;2023-04-25T08:07:18;4.35;;;3.18;;
54143;SDS011;40050;47.324;18.792;2023-04-25T08:09:14;5.52;;;3.39;;
54143;SDS011;40050;47.324;18.792;2023-04-25T08:11:15;4.74;;;3.19;;
54143;SDS011;40050;47.324;18.792;2023-04-25T08:13:16;4.64;;;3.38;;
54143;SDS011;40050;47.324;18.792;2023-04-25T08:15:17;7.05;;;3.68;;
54143;SDS011;40050;47.324;18.792;2023-04-25T08:17:17;4.92;;;3.58;;
54143;SDS011;40050;47.324;18.792;2023-04-25T08:19:26;4.16;;;3.48;;
54143;SDS011;40050;47.324;18.792;2023-04-25T08:21:23;4.74;;;3.28;;
54143;SDS011;40050;47.324;18.792;2023-04-25T08:23:24;4.16;;;3.39;;
54143;SDS011;40050;47.324;18.792;2023-04-25T08:25:23;4.35;;;3.09;;
54143;SDS011;40050;47.324;18.792;2023-04-25T08:27:29;8.02;;;3.88;;
54143;SDS011;40050;47.324;18.792;2023-04-25T08:29:30;5.91;;;4.08;;
54143;SDS011;40050;47.324;18.792;2023-04-25T08:31:37;5.42;;;3.49;;
54143;SDS011;40050;47.324;18.792;2023-04-25T08:33:51;4.64;;;3.29;;
54143;SDS011;40050;47.324;18.792;2023-04-25T08:35:40;4.66;;;3.39;;
54143;SDS011;40050;47.324;18.792;2023-04-25T08:37:45;5.72;;;3.39;;
54143;SDS011;40050;47.324;18.792;2023-04-25T08:40:02;5.04;;;2.99;;
54143;SDS011;40050;47.324;18.792;2023-04-25T08:53:06;4.18;;;3.09;;
54143;SDS011;40050;47.324;18.792;2023-04-25T08:55:16;3.70;;;2.99;;
54143;SDS011;40050;47.324;18.792;2023-04-25T09:16:36;3.23;;;2.59;;
54143;SDS011;40050;47.324;18.792;2023-04-25T09:18:43;3.52;;;2.49;;
54143;SDS011;40050;47.324;18.792;2023-04-25T09:21:16;4.11;;;3.09;;
54143;SDS011;40050;47.324;18.792;2023-04-25T09:42:30;2.36;;;2.20;;
54143;SDS011;40050;47.324;18.792;2023-04-25T09:44:35;3.64;;;2.40;;
54143;SDS011;40050;47.324;18.792;2023-04-25T09:53:20;2.17;;;1.90;;
54143;SDS011;40050;47.324;18.792;2023-04-25T10:11:27;3.06;;;1.70;;
54143;SDS011;40050;47.324;18.792;2023-04-25T10:13:35;2.57;;;1.70;;
54143;SDS011;40050;47.324;18.792;2023-04-25T10:31:46;2.57;;;2.20;;
54143;SDS011;40050;47.324;18.792;2023-04-25T10:42:30;2.57;;;1.70;;
54143;SDS011;40050;47.324;18.792;2023-04-25T10:44:29;3.66;;;1.60;;
54143;SDS011;40050;47.324;18.792;2023-04-25T10:46:46;2.57;;;1.90;;
54143;SDS011;40050;47.324;18.792;2023-04-25T10:59:17;1.98;;;1.20;;
54143;SDS011;40050;47.324;18.792;2023-04-25T11:16:01;1.39;;;1.20;;
54143;SDS011;40050;47.324;18.792;2023-04-25T11:22:16;1.49;;;1.40;;
54143;SDS011;40050;47.324;18.792;2023-04-25T11:24:21;1.88;;;1.20;;
54143;SDS011;40050;47.324;18.792;2023-04-25T11:26:31;1.19;;;1.10;;
54143;SDS011;40050;47.324;18.792;2023-04-25T11:35:46;1.49;;;1.00;;
54143;SDS011;40050;47.324;18.792;2023-04-25T11:37:47;1.49;;;1.00;;
54143;SDS011;40050;47.324;18.792;2023-04-25T11:39:52;2.39;;;1.20;;
54143;SDS011;40050;47.324;18.792;2023-04-25T11:41:54;1.19;;;1.10;;
54143;SDS011;40050;47.324;18.792;2023-04-25T11:43:57;1.19;;;1.10;;
54143;SDS011;40050;47.324;18.792;2023-04-25T11:45:58;1.69;;;1.00;;
54143;SDS011;40050;47.324;18.792;2023-04-25T11:48:03;1.29;;;1.00;;
54143;SDS011;40050;47.324;18.792;2023-04-25T11:50:05;2.89;;;1.00;;
54143;SDS011;40050;47.324;18.792;2023-04-25T11:52:14;1.10;;;1.00;;
54143;SDS011;40050;47.324;18.792;2023-04-25T11:54:23;1.59;;;0.90;;
54143;SDS011;40050;47.324;18.792;2023-04-25T12:03:33;1.29;;;0.90;;
54143;SDS011;40050;47.324;18.792;2023-04-25T12:08:14;1.40;;;0.90;;
54143;SDS011;40050;47.324;18.792;2023-04-25T12:54:17;1.40;;;1.10;;
54143;SDS011;40050;47.324;18.792;2023-04-25T12:56:24;1.20;;;1.00;;
54143;SDS011;40050;47.324;18.792;2023-04-25T12:58:25;1.20;;;1.00;;
54143;SDS011;40050;47.324;18.792;2023-04-25T13:00:41;1.99;;;1.00;;
54143;SDS011;40050;47.324;18.792;2023-04-25T13:02:44;2.09;;;1.00;;
54143;SDS011;40050;47.324;18.792;2023-04-25T13:04:50;1.10;;;1.00;;
54143;SDS011;40050;47.324;18.792;2023-04-25T13:09:15;2.00;;;1.10;;
54143;SDS011;40050;47.324;18.792;2023-04-25T13:11:06;1.40;;;1.00;;
54143;SDS011;40050;47.324;18.792;2023-04-25T13:13:41;1.70;;;1.10;;
54143;SDS011;40050;47.324;18.792;2023-04-25T13:15:12;1.10;;;1.00;;
54143;SDS011;40050;47.324;18.792;2023-04-25T13:17:13;1.00;;;0.80;;
54143;SDS011;40050;47.324;18.792;2023-04-25T13:19:14;2.59;;;1.10;;
54143;SDS011;40050;47.324;18.792;2023-04-25T13:21:15;1.90;;;1.30;;
54143;SDS011;40050;47.324;18.792;2023-04-25T13:25:17;1.80;;;1.20;;
54143;SDS011;40050;47.324;18.792;2023-04-25T13:27:18;1.50;;;1.20;;
54143;SDS011;40050;47.324;18.792;2023-04-25T13:29:22;2.40;;;1.50;;
54143;SDS011;40050;47.324;18.792;2023-04-25T13:31:23;1.90;;;1.20;;
54143;SDS011;40050;47.324;18.792;2023-04-25T13:33:29;2.59;;;1.20;;
54143;SDS011;40050;47.324;18.792;2023-04-25T13:35:30;1.40;;;1.10;;
54143;SDS011;40050;47.324;18.792;2023-04-25T13:37:31;1.40;;;1.10;;
54143;SDS011;40050;47.324;18.792;2023-04-25T13:39:32;2.80;;;1.20;;
54143;SDS011;40050;47.324;18.792;2023-04-25T13:41:33;1.30;;;1.20;;
54143;SDS011;40050;47.324;18.792;2023-04-25T13:43:34;5.09;;;1.30;;
54143;SDS011;40050;47.324;18.792;2023-04-25T13:45:36;1.50;;;1.30;;
54143;SDS011;40050;47.324;18.792;2023-04-25T13:47:37;1.90;;;1.30;;
54143;SDS011;40050;47.324;18.792;2023-04-25T13:49:38;2.79;;;1.10;;
54143;SDS011;40050;47.324;18.792;2023-04-25T13:51:39;3.19;;;1.10;;
54143;SDS011;40050;47.324;18.792;2023-04-25T13:53:40;2.79;;;1.30;;
54143;SDS011;40050;47.324;18.792;2023-04-25T13:55:40;1.60;;;1.40;;
54143;SDS011;40050;47.324;18.792;2023-04-25T13:57:45;2.50;;;1.30;;
54143;SDS011;40050;47.324;18.792;2023-04-25T13:59:58;1.80;;;1.30;;
54143;SDS011;40050;47.324;18.792;2023-04-25T14:02:01;1.30;;;1.20;;
54143;SDS011;40050;47.324;18.792;2023-04-25T14:06:35;2.20;;;1.30;;
54143;SDS011;40050;47.324;18.792;2023-04-25T14:17:48;5.19;;;1.80;;
54143;SDS011;40050;47.324;18.792;2023-04-25T14:19:46;1.50;;;1.30;;
54143;SDS011;40050;47.324;18.792;2023-04-25T14:21:48;2.99;;;1.40;;
54143;SDS011;40050;47.324;18.792;2023-04-25T14:23:52;2.89;;;1.60;;
54143;SDS011;40050;47.324;18.792;2023-04-25T14:25:53;1.70;;;1.50;;
54143;SDS011;40050;47.324;18.792;2023-04-25T14:27:54;1.89;;;1.40;;
54143;SDS011;40050;47.324;18.792;2023-04-25T14:29:55;2.69;;;1.40;;
54143;SDS011;40050;47.324;18.792;2023-04-25T14:31:57;2.19;;;1.80;;
54143;SDS011;40050;47.324;18.792;2023-04-25T14:33:58;2.69;;;1.70;;
54143;SDS011;40050;47.324;18.792;2023-04-25T14:36:00;4.09;;;1.80;;
54143;SDS011;40050;47.324;18.792;2023-04-25T14:38:00;2.69;;;1.70;;
54143;SDS011;40050;47.324;18.792;2023-04-25T14:40:05;2.99;;;1.60;;
54143;SDS011;40050;47.324;18.792;2023-04-25T14:42:06;3.49;;;1.70;;
54143;SDS011;40050;47.324;18.792;2023-04-25T14:44:06;2.69;;;1.80;;
54143;SDS011;40050;47.324;18.792;2023-04-25T14:46:08;2.29;;;1.60;;
54143;SDS011;40050;47.324;18.792;2023-04-25T14:48:08;2.29;;;1.70;;
54143;SDS011;40050;47.324;18.792;2023-04-25T14:50:09;3.19;;;1.70;;
54143;SDS011;40050;47.324;18.792;2023-04-25T14:52:10;2.19;;;1.70;;
54143;SDS011;40050;47.324;18.792;2023-04-25T14:54:11;1.99;;;1.60;;
54143;SDS011;40050;47.324;18.792;2023-04-25T14:56:12;2.39;;;1.50;;
54143;SDS011;40050;47.324;18.792;2023-04-25T14:58:20;2.29;;;1.60;;
54143;SDS011;40050;47.324;18.792;2023-04-25T15:00:16;2.59;;;1.50;;
54143;SDS011;40050;47.324;18.792;2023-04-25T15:06:26;2.49;;;1.70;;
54143;SDS011;40050;47.324;18.792;2023-04-25T15:08:27;1.80;;;1.40;;
54143;SDS011;40050;47.324;18.792;2023-04-25T15:10:28;5.19;;;1.70;;
54143;SDS011;40050;47.324;18.792;2023-04-25T15:12:29;1.80;;;1.60;;
54143;SDS011;40050;47.324;18.792;2023-04-25T15:14:29;3.39;;;1.70;;
54143;SDS011;40050;47.324;18.792;2023-04-25T15:16:31;4.39;;;1.80;;
54143;SDS011;40050;47.324;18.792;2023-04-25T15:18:32;3.49;;;1.70;;
54143;SDS011;40050;47.324;18.792;2023-04-25T15:20:33;3.19;;;1.80;;
54143;SDS011;40050;47.324;18.792;2023-04-25T15:22:33;2.39;;;1.50;;
54143;SDS011;40050;47.324;18.792;2023-04-25T15:24:36;4.19;;;1.70;;
54143;SDS011;40050;47.324;18.792;2023-04-25T15:26:37;1.99;;;1.80;;
54143;SDS011;40050;47.324;18.792;2023-04-25T15:28:38;1.99;;;1.80;;
54143;SDS011;40050;47.324;18.792;2023-04-25T15:30:40;4.59;;;2.00;;
54143;SDS011;40050;47.324;18.792;2023-04-25T15:32:41;2.79;;;2.10;;